createdAt,value
2023-04-08T00:01:32.970Z,98.00
2023-04-08T00:04:01.355Z,101.35
2023-04-08T00:06:30.085Z,110.88
2023-04-08T00:08:58.363Z,103.63
2023-04-08T00:11:27.028Z,106.35
2023-04-08T00:13:55.549Z,116.25
2023-04-08T00:16:24.281Z,116.78
2023-04-08T00:18:52.877Z,113.65
2023-04-08T00:21:21.982Z,112.00
2023-04-08T00:23:50.444Z,133.55
2023-04-08T00:26:20.166Z,109.22
2023-04-08T00:28:49.519Z,111.38
2023-04-08T00:31:18.383Z,115.35
2023-04-08T00:33:46.949Z,119.70
2023-04-08T00:36:15.623Z,112.82
2023-04-08T00:38:44.252Z,119.03
2023-04-08T00:41:13.290Z,122.65
2023-04-08T00:43:41.707Z,100.95
2023-04-08T00:46:10.929Z,108.90
2023-04-08T00:48:39.477Z,137.88
2023-04-08T00:51:08.564Z,785.50
2023-04-08T00:53:37.158Z,552.17
2023-04-08T00:56:06.538Z,98.32
2023-04-08T00:58:35.018Z,91.13
2023-04-08T01:01:41.392Z,99.22
2023-04-08T01:04:36.505Z,84.85
2023-04-08T01:07:29.152Z,743.15
2023-04-08T01:12:33.351Z,67.22
2023-04-08T01:15:10.506Z,84.13
2023-04-08T01:17:40.771Z,70.32
2023-04-08T01:20:11.085Z,75.25
2023-04-08T01:22:55.401Z,314.50
2023-04-08T01:25:31.458Z,70.18
2023-04-08T01:28:03.851Z,244.63
2023-04-08T01:30:33.764Z,133.82
2023-04-08T01:33:04.322Z,82.38
2023-04-08T01:35:33.269Z,71.43
2023-04-08T01:38:03.854Z,469.30
2023-04-08T01:40:34.811Z,60.47
2023-04-08T01:43:09.363Z,88.72
2023-04-08T01:45:39.645Z,157.02
2023-04-08T01:48:09.316Z,66.00
2023-04-08T01:50:38.790Z,247.75
2023-04-08T01:53:10.537Z,214.07
2023-04-08T01:55:41.082Z,353.23
2023-04-08T01:58:15.701Z,220.48
2023-04-08T02:00:45.452Z,173.63
2023-04-08T02:05:48.020Z,368.98
2023-04-08T02:08:16.661Z,301.27
2023-04-08T02:10:44.823Z,286.60
2023-04-08T02:13:13.463Z,480.48
2023-04-08T02:15:47.908Z,152.95
2023-04-08T02:18:22.908Z,376.15
2023-04-08T02:20:59.834Z,217.52
2023-04-08T02:23:34.537Z,114.90
2023-04-08T02:26:07.969Z,158.27
2023-04-08T02:28:37.685Z,81.00
2023-04-08T02:31:08.379Z,80.68
2023-04-08T02:33:39.075Z,112.90
2023-04-08T02:36:08.624Z,281.25
2023-04-08T02:38:38.170Z,168.90
2023-04-08T02:41:06.543Z,168.07
2023-04-08T02:43:35.288Z,297.98
2023-04-08T02:46:07.723Z,168.95
2023-04-08T02:48:38.194Z,177.70
2023-04-08T02:51:06.549Z,158.25
2023-04-08T02:53:35.512Z,207.30
2023-04-08T02:56:03.897Z,172.60
2023-04-08T02:58:32.677Z,83.68
2023-04-08T03:01:01.376Z,97.22
2023-04-08T03:03:31.483Z,152.75
2023-04-08T03:06:00.419Z,99.22
2023-04-08T03:08:29.153Z,97.75
2023-04-08T03:10:57.443Z,155.40
2023-04-08T03:13:26.828Z,135.48
2023-04-08T03:15:55.224Z,161.70
2023-04-08T03:18:24.852Z,144.25
2023-04-08T03:20:53.130Z,176.50
2023-04-08T03:23:21.967Z,220.00
2023-04-08T03:25:50.422Z,239.35
2023-04-08T03:28:19.115Z,384.10
2023-04-08T03:30:47.546Z,364.92
2023-04-08T03:33:16.523Z,483.73
2023-04-08T03:35:44.818Z,359.60
2023-04-08T03:38:13.418Z,288.65
2023-04-08T03:40:41.721Z,439.35
2023-04-08T03:43:11.942Z,303.20
2023-04-08T03:45:41.533Z,240.05
2023-04-08T03:48:10.169Z,195.27
2023-04-08T03:50:38.801Z,289.77
2023-04-08T03:53:07.484Z,148.45
2023-04-08T03:55:36.005Z,154.02
2023-04-08T03:58:04.831Z,270.38
2023-04-08T04:00:33.321Z,299.58
2023-04-08T04:03:02.544Z,350.27
2023-04-08T04:05:31.053Z,179.77
2023-04-08T04:07:59.753Z,285.55
2023-04-08T04:10:27.996Z,303.35
2023-04-08T04:13:22.221Z,370.65
2023-04-08T04:15:50.826Z,369.10
2023-04-08T04:18:19.947Z,396.42
2023-04-08T04:20:48.473Z,333.20
2023-04-08T04:23:17.637Z,178.82
2023-04-08T04:25:46.056Z,259.85
2023-04-08T04:28:15.311Z,271.27
2023-04-08T04:30:45.837Z,217.90
2023-04-08T04:33:15.801Z,156.75
2023-04-08T04:35:44.746Z,181.43
2023-04-08T04:38:13.655Z,150.13
2023-04-08T04:40:44.615Z,126.55
2023-04-08T04:43:13.595Z,129.10
2023-04-08T04:45:42.173Z,94.63
2023-04-08T04:48:14.217Z,129.32
2023-04-08T04:50:43.965Z,171.02
2023-04-08T04:53:13.005Z,171.73
2023-04-08T04:55:42.811Z,209.32
2023-04-08T04:58:13.297Z,280.42
2023-04-08T05:00:43.353Z,362.90
2023-04-08T05:03:14.695Z,342.27
2023-04-08T05:05:45.695Z,324.23
2023-04-08T05:08:18.246Z,361.52
2023-04-08T05:10:46.859Z,378.05
2023-04-08T05:13:16.089Z,434.83
2023-04-08T05:15:46.300Z,474.45
2023-04-08T05:18:20.696Z,444.15
2023-04-08T05:20:49.333Z,368.30
2023-04-08T05:23:18.170Z,322.83
2023-04-08T05:25:51.550Z,398.25
2023-04-08T05:28:21.120Z,394.52
2023-04-08T05:31:03.539Z,333.40
2023-04-08T05:33:32.307Z,324.67
2023-04-08T05:36:04.138Z,411.92
2023-04-08T05:38:35.269Z,588.97
2023-04-08T05:41:09.759Z,641.03
2023-04-08T05:43:39.182Z,637.55
2023-04-08T05:46:12.484Z,507.30
2023-04-08T05:48:41.295Z,497.63
2023-04-08T05:51:18.045Z,476.98
2023-04-08T05:53:47.786Z,489.88
2023-04-08T05:56:31.605Z,398.48
2023-04-08T05:59:00.696Z,503.65
2023-04-08T06:02:00.118Z,337.30
2023-04-08T06:04:27.164Z,231.15
2023-04-08T06:06:56.964Z,159.77
2023-04-08T06:09:26.818Z,137.93
2023-04-08T06:11:55.239Z,118.80
2023-04-08T06:14:24.109Z,93.45
2023-04-08T06:16:57.560Z,78.53
2023-04-08T06:19:30.493Z,82.90
2023-04-08T06:21:59.768Z,82.93
2023-04-08T06:24:29.963Z,75.45
2023-04-08T06:26:58.463Z,63.22
2023-04-08T06:29:30.132Z,48.95
2023-04-08T06:31:58.911Z,51.22
2023-04-08T06:34:36.549Z,49.88
2023-04-08T06:37:06.547Z,48.15
2023-04-08T06:39:35.449Z,43.67
2023-04-08T06:42:03.854Z,37.88
2023-04-08T06:44:48.423Z,40.40
2023-04-08T06:47:18.687Z,36.90
2023-04-08T06:49:52.843Z,37.47
2023-04-08T06:52:21.557Z,34.78
2023-04-08T06:54:58.073Z,36.15
2023-04-08T06:57:41.210Z,34.25
2023-04-08T07:00:11.060Z,33.60
2023-04-08T07:02:39.578Z,37.05
2023-04-08T07:05:08.637Z,34.10
2023-04-08T07:07:37.775Z,34.90
2023-04-08T07:10:08.765Z,36.88
2023-04-08T07:12:38.969Z,39.83
2023-04-08T07:15:08.732Z,41.08
2023-04-08T07:17:37.187Z,42.60
2023-04-08T07:20:07.142Z,43.92
2023-04-08T07:22:35.460Z,42.60
2023-04-08T07:25:04.730Z,39.88
2023-04-08T07:27:35.125Z,40.35
2023-04-08T07:30:04.254Z,38.03
2023-04-08T07:32:33.760Z,36.80
2023-04-08T07:35:29.646Z,35.92
2023-04-08T07:37:58.202Z,39.97
2023-04-08T07:40:26.837Z,39.25
2023-04-08T07:42:55.227Z,37.85
2023-04-08T07:45:24.366Z,36.08
2023-04-08T07:47:52.636Z,37.30
2023-04-08T07:53:24.716Z,33.80
2023-04-08T07:55:53.664Z,33.88
2023-04-08T07:58:22.022Z,42.08
2023-04-08T08:00:51.623Z,29.13
2023-04-08T08:03:20.037Z,32.83
2023-04-08T08:06:14.050Z,31.60
2023-04-08T08:09:32.245Z,27.58
2023-04-08T08:12:02.188Z,24.00
2023-04-08T08:14:30.499Z,23.60
2023-04-08T08:17:24.112Z,25.27
2023-04-08T08:19:54.052Z,23.88
2023-04-08T08:22:22.822Z,24.95
2023-04-08T08:24:56.473Z,25.08
2023-04-08T08:27:26.633Z,24.38
2023-04-08T08:30:22.219Z,26.77
2023-04-08T08:33:16.425Z,23.90
2023-04-08T08:35:44.879Z,21.00
2023-04-08T08:38:14.509Z,21.17
2023-04-08T08:40:42.829Z,20.13
2023-04-08T08:43:12.326Z,27.30
2023-04-08T08:45:43.323Z,22.75
2023-04-08T08:48:17.606Z,24.90
2023-04-08T08:51:11.993Z,26.95
2023-04-08T08:53:45.721Z,20.35
2023-04-08T08:56:18.828Z,19.67
2023-04-08T08:58:48.028Z,20.40
2023-04-08T09:01:41.597Z,18.42
2023-04-08T09:04:17.078Z,19.55
2023-04-08T09:06:51.191Z,20.88
2023-04-08T09:09:20.825Z,19.13
2023-04-08T09:11:49.987Z,20.23
2023-04-08T09:14:26.592Z,19.50
2023-04-08T09:16:54.948Z,19.85
2023-04-08T09:19:23.840Z,19.98
2023-04-08T09:22:11.902Z,18.73
2023-04-08T09:24:40.859Z,19.33
2023-04-08T09:27:09.494Z,21.05
2023-04-08T09:29:40.041Z,18.77
2023-04-08T09:32:08.664Z,17.58
2023-04-08T09:34:37.710Z,20.30
2023-04-08T09:37:06.038Z,17.55
2023-04-08T09:39:34.756Z,18.60
2023-04-08T09:42:09.606Z,17.98
2023-04-08T09:44:38.834Z,20.67
2023-04-08T09:47:19.159Z,18.38
2023-04-08T09:49:55.428Z,17.50
2023-04-08T09:52:47.587Z,18.33
2023-04-08T09:55:19.617Z,18.83
2023-04-08T09:57:55.763Z,19.80
2023-04-08T10:00:34.790Z,17.10
2023-04-08T10:03:12.327Z,16.25
2023-04-08T10:05:43.880Z,16.02
2023-04-08T10:08:13.570Z,17.13
2023-04-08T10:10:43.392Z,17.10
2023-04-08T10:13:12.118Z,18.45
2023-04-08T10:15:43.237Z,19.02
2023-04-08T10:18:11.472Z,18.15
2023-04-08T10:20:40.383Z,19.02
2023-04-08T10:23:10.938Z,20.63
2023-04-08T10:25:41.762Z,18.35
2023-04-08T10:28:13.155Z,16.23
2023-04-08T10:30:48.689Z,17.48
2023-04-08T10:33:29.232Z,20.23
2023-04-08T10:36:17.816Z,19.40
2023-04-08T10:38:47.758Z,21.83
2023-04-08T10:41:24.528Z,16.65
2023-04-08T10:43:52.924Z,19.27
2023-04-08T10:46:22.532Z,19.45
2023-04-08T10:49:02.023Z,17.45
2023-04-08T10:51:35.188Z,17.35
2023-04-08T10:54:08.709Z,16.08
2023-04-08T10:56:45.125Z,18.70
2023-04-08T10:59:16.961Z,20.27
2023-04-08T11:01:47.135Z,17.50
2023-04-08T11:04:19.750Z,17.02
2023-04-08T11:06:48.635Z,17.20
2023-04-08T11:09:17.677Z,17.85
2023-04-08T11:11:46.995Z,19.35
2023-04-08T11:14:17.346Z,18.95
2023-04-08T11:16:46.124Z,18.63
2023-04-08T11:19:16.385Z,15.35
2023-04-08T11:21:46.034Z,14.93
2023-04-08T11:24:16.574Z,15.23
2023-04-08T11:26:45.878Z,16.25
2023-04-08T11:29:15.145Z,15.85
2023-04-08T11:31:44.470Z,15.07
2023-04-08T11:34:13.370Z,14.80
2023-04-08T11:36:42.420Z,17.83
2023-04-08T11:39:12.613Z,21.80
2023-04-08T11:41:41.163Z,16.15
2023-04-08T11:44:09.479Z,16.23
2023-04-08T11:46:38.433Z,18.08
2023-04-08T11:49:10.147Z,17.73
2023-04-08T11:51:57.821Z,17.08
2023-04-08T11:54:33.227Z,16.52
2023-04-08T11:57:03.174Z,14.68
2023-04-08T11:59:31.451Z,16.75
2023-04-08T12:02:00.596Z,17.33
2023-04-08T12:04:30.077Z,16.25
2023-04-08T12:06:58.896Z,16.45
2023-04-08T12:09:27.532Z,14.23
2023-04-08T12:11:56.840Z,16.70
2023-04-08T12:14:28.596Z,15.35
2023-04-08T12:16:57.201Z,14.30
2023-04-08T12:19:25.734Z,17.15
2023-04-08T12:21:56.293Z,14.85
2023-04-08T12:24:24.717Z,13.88
2023-04-08T12:26:53.768Z,14.07
2023-04-08T12:29:22.148Z,13.68
2023-04-08T12:31:51.863Z,14.07
2023-04-08T12:34:45.672Z,14.50
2023-04-08T12:37:14.303Z,16.75
2023-04-08T12:39:42.555Z,15.05
2023-04-08T12:42:11.336Z,14.13
2023-04-08T12:45:05.060Z,13.35
2023-04-08T12:47:35.175Z,14.20
2023-04-08T12:50:04.067Z,13.70
2023-04-08T12:52:33.540Z,14.23
2023-04-08T12:55:02.164Z,11.98
2023-04-08T12:57:32.195Z,11.55
2023-04-08T13:00:00.519Z,12.48
2023-04-08T13:02:29.246Z,12.45
2023-04-08T13:04:57.858Z,12.23
2023-04-08T13:07:29.801Z,12.45
2023-04-08T13:09:58.321Z,12.27
2023-04-08T13:12:27.643Z,11.35
2023-04-08T13:14:56.448Z,10.20
2023-04-08T13:17:25.435Z,10.43
2023-04-08T13:19:55.019Z,12.68
2023-04-08T13:22:23.875Z,13.45
2023-04-08T13:24:52.194Z,11.90
2023-04-08T13:27:22.015Z,12.93
2023-04-08T13:29:50.461Z,13.13
2023-04-08T13:32:19.250Z,12.20
2023-04-08T13:34:47.771Z,11.23
2023-04-08T13:37:17.138Z,11.60
2023-04-08T13:39:45.410Z,10.40
2023-04-08T13:42:14.252Z,11.13
2023-04-08T13:44:42.475Z,13.60
2023-04-08T13:47:12.385Z,13.40
2023-04-08T13:49:44.081Z,10.38
2023-04-08T13:52:12.773Z,10.18
2023-04-08T13:54:41.440Z,10.13
2023-04-08T13:57:10.203Z,10.88
2023-04-08T13:59:38.646Z,11.00
2023-04-08T14:02:07.565Z,11.35
2023-04-08T14:04:36.037Z,11.27
2023-04-08T14:07:54.630Z,10.38
2023-04-08T14:10:22.979Z,11.05
2023-04-08T14:12:51.586Z,10.68
2023-04-08T14:15:19.886Z,11.05
2023-04-08T14:17:48.687Z,12.00
2023-04-08T14:20:17.034Z,11.43
2023-04-08T14:22:45.962Z,10.93
2023-04-08T14:25:14.379Z,10.43
2023-04-08T14:27:56.799Z,10.63
2023-04-08T14:30:27.232Z,9.90
2023-04-08T14:33:03.865Z,9.52
2023-04-08T14:35:32.237Z,11.15
2023-04-08T14:38:01.333Z,11.15
2023-04-08T14:40:29.642Z,12.82
2023-04-08T14:42:58.281Z,9.90
2023-04-08T14:45:27.181Z,8.95
2023-04-08T14:47:55.873Z,9.93
2023-04-08T14:50:24.391Z,10.40
2023-04-08T14:52:53.153Z,11.45
2023-04-08T14:55:22.656Z,10.18
2023-04-08T14:57:51.511Z,11.90
2023-04-08T15:00:19.875Z,9.85
2023-04-08T15:02:48.460Z,10.82
2023-04-08T15:05:20.920Z,9.98
2023-04-08T15:07:50.045Z,11.77
2023-04-08T15:10:18.281Z,10.85
2023-04-08T15:12:47.586Z,10.80
2023-04-08T15:15:17.479Z,12.95
2023-04-08T15:17:46.962Z,10.55
2023-04-08T15:20:16.061Z,9.57
2023-04-08T15:22:45.362Z,9.70
2023-04-08T15:25:13.871Z,8.50
2023-04-08T15:27:43.074Z,8.52
2023-04-08T15:30:12.572Z,11.80
2023-04-08T15:32:42.084Z,8.90
2023-04-08T15:35:10.973Z,9.07
2023-04-08T15:37:39.831Z,8.85
2023-04-08T15:40:08.702Z,8.13
2023-04-08T15:42:38.023Z,9.40
2023-04-08T15:45:31.895Z,12.52
2023-04-08T15:48:00.784Z,10.10
2023-04-08T15:50:30.343Z,9.50
2023-04-08T15:52:58.978Z,9.55
2023-04-08T15:55:40.073Z,10.20
2023-04-08T15:58:08.685Z,9.85
2023-04-08T16:00:37.449Z,9.30
2023-04-08T16:03:08.775Z,10.57
2023-04-08T16:05:39.781Z,78.85
2023-04-08T16:08:08.485Z,15.00
2023-04-08T16:10:36.711Z,10.70
2023-04-08T16:13:05.359Z,11.60
2023-04-08T16:15:34.345Z,10.10
2023-04-08T16:18:28.358Z,10.18
2023-04-08T16:21:21.733Z,9.75
2023-04-08T16:23:50.628Z,8.75
2023-04-08T16:26:19.202Z,9.50
2023-04-08T16:28:51.988Z,9.73
2023-04-08T16:31:20.562Z,11.88
2023-04-08T16:33:49.616Z,11.80
2023-04-08T16:36:18.982Z,11.98
2023-04-08T16:38:57.621Z,11.93
2023-04-08T16:41:26.058Z,9.35
2023-04-08T16:43:54.711Z,8.98
2023-04-08T16:46:23.031Z,9.77
2023-04-08T16:48:51.625Z,9.63
2023-04-08T16:51:19.970Z,38.90
2023-04-08T16:53:48.518Z,17.85
2023-04-08T16:56:17.076Z,14.13
2023-04-08T16:58:46.157Z,12.13
2023-04-08T17:01:15.730Z,14.68
2023-04-08T17:03:44.882Z,17.40
2023-04-08T17:06:13.900Z,15.98
2023-04-08T17:08:45.242Z,25.00
2023-04-08T17:11:15.435Z,22.00
2023-04-08T17:13:44.873Z,25.67
2023-04-08T17:16:15.939Z,25.88
2023-04-08T17:18:45.445Z,24.05
2023-04-08T17:21:16.483Z,21.98
2023-04-08T17:24:05.494Z,22.23
2023-04-08T17:26:34.382Z,30.88
2023-04-08T17:29:05.912Z,24.38
2023-04-08T17:31:34.152Z,30.73
2023-04-08T17:34:04.772Z,31.52
2023-04-08T17:36:33.204Z,21.00
2023-04-08T17:39:01.893Z,15.43
2023-04-08T17:41:54.884Z,16.88
2023-04-08T17:47:36.566Z,18.77
2023-04-08T17:50:07.239Z,23.52
2023-04-08T17:52:35.579Z,16.63
2023-04-08T17:55:04.591Z,16.23
2023-04-08T17:58:02.593Z,19.05
2023-04-08T18:00:31.747Z,23.25
2023-04-08T18:03:04.768Z,27.52
2023-04-08T18:05:33.957Z,21.63
2023-04-08T18:08:02.503Z,15.90
2023-04-08T18:10:32.632Z,17.00
2023-04-08T18:13:15.402Z,18.10
2023-04-08T18:15:45.751Z,16.05
2023-04-08T18:18:43.196Z,16.40
2023-04-08T18:21:22.430Z,21.85
2023-04-08T18:23:51.203Z,23.60
2023-04-08T18:26:24.044Z,23.52
2023-04-08T18:28:53.847Z,21.95
2023-04-08T18:31:25.014Z,22.42
2023-04-08T18:34:04.049Z,23.65
2023-04-08T18:37:00.984Z,28.67
2023-04-08T18:42:19.627Z,24.13
2023-04-08T18:44:51.499Z,22.92
2023-04-08T18:47:59.972Z,21.67
2023-04-08T18:50:54.900Z,23.05
2023-04-08T18:53:28.452Z,20.00
2023-04-08T18:56:00.650Z,20.00
2023-04-08T18:58:32.904Z,20.27
2023-04-08T19:01:22.831Z,19.48
2023-04-08T19:03:56.031Z,20.20
2023-04-08T19:06:24.721Z,20.90
2023-04-08T19:08:54.741Z,20.45
2023-04-08T19:22:33.110Z,28.27
2023-04-08T19:25:14.786Z,27.58
2023-04-08T19:27:52.770Z,30.95
2023-04-08T19:31:03.610Z,27.75
2023-04-08T19:38:00.999Z,25.17
2023-04-08T19:40:32.636Z,34.95
2023-04-08T20:02:28.123Z,37.22
2023-04-08T20:05:01.113Z,37.33
2023-04-08T20:08:15.061Z,33.45
2023-04-08T20:10:54.685Z,36.20
2023-04-08T20:13:24.415Z,34.90
2023-04-08T20:15:53.449Z,42.05
2023-04-08T20:18:25.769Z,40.53
2023-04-08T20:21:24.563Z,41.63
2023-04-08T20:23:53.416Z,42.47
2023-04-08T20:26:26.934Z,38.95
2023-04-08T20:28:58.480Z,41.53
2023-04-08T20:33:56.775Z,37.78
2023-04-08T20:36:28.758Z,34.75
2023-04-08T20:39:00.344Z,37.92
2023-04-08T20:41:29.619Z,43.35
2023-04-08T20:43:58.081Z,55.35
2023-04-08T20:46:27.485Z,61.58
2023-04-08T20:48:56.220Z,65.38
2023-04-08T20:51:25.579Z,57.45
2023-04-08T20:53:54.099Z,48.60
2023-04-08T20:56:22.957Z,43.95
2023-04-08T20:58:54.589Z,35.45
2023-04-08T21:01:24.200Z,37.92
2023-04-08T21:03:55.058Z,33.17
2023-04-08T21:06:24.181Z,29.25
2023-04-08T21:08:52.649Z,28.15
2023-04-08T21:11:21.893Z,30.35
2023-04-08T21:13:50.519Z,26.35
2023-04-08T21:16:19.556Z,25.33
2023-04-08T21:18:51.217Z,27.63
2023-04-08T21:21:24.869Z,28.40
2023-04-08T21:23:53.929Z,32.35
2023-04-08T21:26:22.956Z,31.83
2023-04-08T21:28:53.891Z,31.15
2023-04-08T21:31:22.855Z,36.47
2023-04-08T21:33:57.735Z,41.03
2023-04-08T21:36:28.280Z,39.65
2023-04-08T21:38:57.474Z,43.10
2023-04-08T21:41:30.284Z,40.58
2023-04-08T21:44:03.726Z,56.55
2023-04-08T21:46:33.543Z,68.00
2023-04-08T21:49:04.284Z,79.10
2023-04-08T21:51:33.228Z,97.65
2023-04-08T21:54:02.198Z,83.80
2023-04-08T21:56:33.614Z,78.93
2023-04-08T21:59:02.299Z,91.35
2023-04-08T22:01:32.263Z,91.72
2023-04-08T22:04:03.440Z,99.45
2023-04-08T22:06:35.538Z,182.55
2023-04-08T22:09:04.118Z,246.98
2023-04-08T22:11:34.995Z,198.50
2023-04-08T22:14:03.883Z,145.57
2023-04-08T22:16:33.025Z,81.80
2023-04-08T22:19:26.311Z,90.80
2023-04-08T22:21:57.013Z,83.90
2023-04-08T22:24:28.447Z,80.78
2023-04-08T22:27:03.712Z,67.60
2023-04-08T22:32:15.056Z,53.25
2023-04-08T22:34:44.923Z,45.22
2023-04-08T22:37:13.719Z,48.17
2023-04-08T22:39:42.229Z,46.03
2023-04-08T22:42:11.504Z,44.60
2023-04-08T22:44:40.043Z,43.45
2023-04-08T22:47:08.922Z,42.03
2023-04-08T22:49:38.622Z,39.75
2023-04-08T22:52:07.501Z,40.45
2023-04-08T22:54:36.526Z,39.88
2023-04-08T22:57:05.723Z,40.90
2023-04-08T22:59:34.234Z,39.97
2023-04-08T23:02:03.118Z,43.15
2023-04-08T23:04:32.789Z,43.42
2023-04-08T23:07:02.919Z,42.10
2023-04-08T23:09:31.485Z,46.28
2023-04-08T23:12:01.500Z,47.85
2023-04-08T23:14:30.243Z,49.17
2023-04-08T23:17:04.972Z,46.40
2023-04-08T23:19:33.935Z,44.05
2023-04-08T23:22:03.051Z,44.83
2023-04-08T23:24:34.379Z,43.55
2023-04-08T23:27:03.249Z,42.08
2023-04-08T23:29:33.013Z,45.35
2023-04-08T23:32:02.270Z,45.63
2023-04-08T23:34:36.153Z,59.85
2023-04-08T23:37:06.480Z,54.80
2023-04-08T23:39:36.482Z,57.20
2023-04-08T23:42:05.296Z,69.32
2023-04-08T23:44:33.649Z,135.45
2023-04-08T23:47:02.339Z,176.43
2023-04-08T23:49:30.872Z,229.63
2023-04-08T23:51:59.613Z,227.07
2023-04-08T23:54:32.865Z,243.93
2023-04-08T23:57:01.975Z,271.92
2023-04-08T23:59:30.665Z,227.40
